YCMH weather

Camden Haven Airport
New South Wales, Australia

Public forecast

Using degrees Celsius for public forecast. Weather courtesy of forecast.io.

METAR (pilot weather report)

Report is more than 6 hours old.

Closest report is Port Macquarie Airport, 15.1 nm (27.9 km) NNE. Retrieved 2019/04/17 10:50 UTC (1 day ago):

YPMQ 171050Z AUTO 23006KT 200V260 9999 // SCT022 OVC030 OVC047 19/17 Q1024

TAF (pilot weather forecast)

Closest forecast is Taree Airport, 17.8 nm (32.9 km) SW. Retrieved 2019/04/18 14:33 UTC (0 seconds ago):

TAF YTRE 181301Z 1814/1902 22005KT 9999 -SHRA BKN030 INTER 1817/1902 4000 SHRA BKN015